Latest Weather Observations for Falls Creek

IDV60801

Issued at 1:02 pm EST Sunday 30 April 2017 (issued every 30 minutes, with the page automatically refreshed every 10 minutes)

About weather observations | Map of weather stations | Latest weather observations for VIC | Other Formats
Station Details ID: 083084 Name: FALLS CREEK Lat: -36.87 Lon: 147.28 Height: 1765.0 m
Data from the previous 72 hours. | See also: Recent months at Falls Creek
Date/Time
EST
Temp
°C
App
Temp
°C
Dew
Point
°C
Rel
Hum
%
Delta-T
°C
Wind Press
QNH
hPa
Press
MSL
hPa
Rain since
9am
mm
Dir  Spd
km/h
Gust
km/h
Spd
kts
Gust
kts
30/01:00pm 6.8 2.5 5.1 89 0.8 NNW 17 20 9 11 1023.1 1020.1 0.0
30/12:30pm 5.8 0.9 5.1 95 0.3 NNW 20 30 11 16 1023.6 1020.6 0.0
30/12:00pm 6.2 1.4 4.8 91 0.7 NNW 19 24 10 13 1023.8 1020.9 0.0
30/11:30am 6.3 1.7 5.4 94 0.4 NNW 19 26 10 14 1024.3 1021.4 0.0
30/11:00am 6.6 2.3 5.2 91 0.7 NNW 17 22 9 12 1024.4 1021.5 0.0
30/10:30am 5.9 1.5 4.9 93 0.5 NNW 17 22 9 12 1024.5 1021.6 0.0
30/10:00am 7.6 4.0 5.1 84 1.2 N 13 19 7 10 1024.5 1021.6 0.0
30/09:30am 7.0 3.4 4.8 86 1.1 N 13 17 7 9 1024.5 1021.6 0.0
30/09:00am 6.5 3.2 4.5 87 1.0 NNW 11 15 6 8 1024.5 1021.6 0.0
30/08:30am 6.3 3.1 2.8 78 1.6 NNW 9 11 5 6 1024.4 1021.5 0.0
30/08:00am 5.8 2.4 -0.5 64 2.7 NNW 7 13 4 7 1024.3 1021.4 0.0
30/07:30am 4.7 0.8 -1.3 65 2.5 NW 9 15 5 8 1024.2 1021.3 0.0
30/07:00am 4.6 0.7 -4.6 51 3.5 NNW 7 9 4 5 1023.9 1021.0 0.0
30/06:30am 7.7 3.9 -16.5 16 7.2 WSW 2 6 1 3 1023.6 1020.6 0.0
30/06:00am 9.8 4.6 -30.4 4 9.1 SSW 7 9 4 5 1023.6 1020.6 0.0
30/05:30am 9.0 3.9 -26.6 6 8.6 SSW 7 7 4 4 1023.4 1020.5 0.0
30/05:00am 8.6 3.5 -26.9 6 8.5 SW 7 9 4 5 1023.6 1020.6 0.0
30/04:30am 8.8 3.3 -26.8 6 8.6 SW 9 11 5 6 1023.4 1020.5 0.0
30/04:00am 8.3 1.7 -24.0 8 8.1 SSW 15 17 8 9 1023.2 1020.3 0.0
30/03:30am 8.0 1.9 -22.9 9 8.0 SSW 13 19 7 10 1023.3 1020.4 0.0
30/03:00am 7.7 1.6 -21.9 10 8.2 SSW 13 17 7 9 1023.4 1020.5 0.0
30/02:30am 8.9 2.4 -23.5 8 8.4 S 15 19 8 10 1023.6 1020.6 0.0
30/02:00am 8.9 1.6 -23.5 8 8.3 S 19 24 10 13 1023.6 1020.6 0.0
30/01:30am 7.1 0.0 -17.0 16 7.0 SSW 19 26 10 14 1023.6 1020.6 0.0
30/01:00am 6.4 -0.4 -12.2 25 6.0 SSW 19 22 10 12 1023.6 1020.6 0.0
30/12:30am 5.7 -0.9 -8.9 34 5.1 SSW 19 24 10 13 1023.6 1020.6 0.0
30/12:00am 3.7 -2.7 -1.4 69 2.1 S 22 26 12 14 1023.4 1020.5 0.0
 
Date/Time
EST
Temp
°C
App
Temp
°C
Dew
Point
°C
Rel
Hum
%
Delta-T
°C
Wind Press
QNH
hPa
Press
MSL
hPa
Rain since
9am
mm
Dir  Spd
km/h
Gust
km/h
Spd
kts
Gust
kts
29/11:30pm 2.7 -2.7 2.6 99 0.0 S 20 26 11 14 1023.4 1020.5 0.0
29/11:00pm 3.8 -0.8 3.7 99 0.0 SSE 17 20 9 11 1023.6 1020.6 0.0
29/10:30pm 4.1 -0.4 4.0 99 0.0 SSE 17 20 9 11 1023.6 1020.6 0.0
29/10:00pm 4.4 0.3 4.3 99 0.0 SSE 15 22 8 12 1023.8 1020.9 0.0
29/09:30pm 4.7 0.6 4.6 99 0.0 SSE 15 24 8 13 1023.9 1021.0 0.0
29/09:00pm 4.8 0.8 4.7 99 0.0 SSE 15 22 8 12 1023.8 1020.9 0.0
29/08:30pm 4.7 1.4 4.6 99 0.0 SSE 11 19 6 10 1023.8 1020.9 0.0
29/08:00pm 5.0 2.1 4.9 99 0.0 SSE 9 13 5 7 1023.8 1020.9 0.0
29/07:30pm 5.4 2.6 5.3 99 0.0 SSE 9 15 5 8 1024.0 1021.1 0.0
29/07:00pm 5.6 3.3 5.5 99 0.0 SSE 7 13 4 7 1023.9 1021.0 0.0
29/06:30pm 5.9 3.2 5.8 99 0.0 SSE 9 13 5 7 1023.7 1020.8 0.0
29/06:00pm 6.3 3.7 6.2 99 0.0 SE 9 15 5 8 1023.4 1020.5 0.0
29/05:30pm 6.7 4.2 6.4 98 0.2 SE 9 13 5 7 1023.2 1020.3 0.0
29/05:00pm 6.8 5.3 6.7 99 0.1 NE 4 6 2 3 1023.2 1020.3 0.0
29/04:30pm 7.5 6.4 7.1 97 0.2 NNE 2 6 1 3 1023.1 1020.1 0.0
29/04:00pm 8.3 7.7 7.2 93 0.6 CALM 0 4 0 2 1022.8 1019.9 0.0
29/03:30pm 7.4 5.3 6.8 96 0.3 N 7 11 4 6 1022.6 1019.7 0.0
29/03:00pm 8.7 7.0 7.6 93 0.6 NNW 6 9 3 5 1022.6 1019.7 0.0
29/02:30pm 9.0 7.0 7.0 87 1.0 W 7 9 4 5 1022.4 1019.4 0.0
29/02:00pm 9.9 7.6 7.5 85 1.3 WNW 9 15 5 8 1022.4 1019.4 0.0
29/01:30pm 9.1 7.1 7.1 87 1.0 NW 7 11 4 6 1022.3 1019.3 0.0
29/01:00pm 11.6 7.4 1.8 51 4.6 SSW 13 19 7 10 1022.4 1019.4 0.0
29/12:30pm 10.8 8.8 6.9 77 2.0 WNW 7 17 4 9 1022.6 1019.7 0.0
29/12:00pm 11.5 8.6 2.5 54 4.3 SW 7 19 4 10 1023.0 1020.0 0.0
29/11:30am 10.9 5.5 2.5 56 4.0 SSW 20 33 11 18 1023.2 1020.3 0.0
29/11:00am 10.6 4.3 3.6 62 3.4 SSW 26 37 14 20 1023.2 1020.3 0.0
29/10:30am 10.5 3.9 1.9 55 4.0 SW 26 32 14 17 1023.2 1020.3 0.0
29/10:00am 9.8 2.7 1.2 55 3.9 SSW 28 37 15 20 1023.1 1020.1 0.0
29/09:30am 8.5 2.1 3.1 69 2.6 SSW 26 37 14 20 1023.2 1020.3 0.0
29/09:00am 8.2 2.5 3.1 70 2.4 SSW 22 33 12 18 1023.1 1020.1 0.0
29/08:30am 7.0 2.3 3.3 77 1.7 SSW 17 24 9 13 1022.7 1019.8 0.0
29/08:00am 5.6 -1.2 3.1 84 1.2 SSW 28 39 15 21 1022.1 1019.2 0.0
29/07:30am 4.5 -1.2 2.7 88 0.8 SSW 22 28 12 15 1022.1 1019.2 0.0
29/07:00am 5.6 -2.1 2.3 79 1.5 SW 32 37 17 20 1021.5 1018.5 0.0
29/06:30am 5.7 0.3 2.2 78 1.6 SSW 20 35 11 19 1021.5 1018.5 0.0
29/06:00am 4.8 0.3 2.2 83 1.2 SSW 15 28 8 15 1021.4 1018.4 0.0
29/05:30am 4.4 -0.9 1.8 83 1.2 SSW 19 26 10 14 1021.5 1018.5 0.0
29/05:00am 4.0 -2.3 1.7 85 1.0 SW 24 28 13 15 1021.5 1018.5 0.0
29/04:30am 4.5 -1.4 1.5 81 1.3 SW 22 26 12 14 1021.5 1018.5 0.0
29/04:00am 4.9 0.4 -0.1 70 2.1 SSW 13 17 7 9 1021.4 1018.4 0.0
29/03:30am 4.5 1.7 -0.7 69 2.2 SW 4 11 2 6 1021.5 1018.5 0.0
29/03:00am 4.3 -1.0 -0.9 69 2.2 SSW 17 20 9 11 1021.5 1018.5 0.0
29/02:30am 3.8 -0.2 -2.4 64 2.5 SSW 9 13 5 7 1022.0 1019.0 0.0
29/02:00am 4.5 -0.5 -4.7 51 3.5 SW 13 20 7 11 1022.1 1019.2 0.0
29/01:30am 4.9 1.1 -5.7 46 3.9 W 6 11 3 6 1022.3 1019.3 0.0
29/01:00am 5.3 0.8 -6.6 42 4.3 W 9 15 5 8 1022.5 1019.5 0.0
29/12:30am 5.6 -0.5 -8.3 36 4.9 WSW 17 24 9 13 1022.5 1019.5 0.0
29/12:00am 4.9 1.1 -4.1 52 3.5 WSW 7 13 4 7 1022.8 1019.9 0.0
 
Date/Time
EST
Temp
°C
App
Temp
°C
Dew
Point
°C
Rel
Hum
%
Delta-T
°C
Wind Press
QNH
hPa
Press
MSL
hPa
Rain since
9am
mm
Dir  Spd
km/h
Gust
km/h
Spd
kts
Gust
kts
28/11:30pm 6.1 3.0 -6.1 41 4.6 NNE 2 6 1 3 1023.0 1020.0 0.0
28/11:00pm 6.0 1.9 -6.2 41 4.5 SSW 7 11 4 6 1023.3 1020.4 0.0
28/10:30pm 6.0 0.5 -5.6 43 4.4 SW 15 20 8 11 1023.3 1020.4 0.0
28/10:00pm 5.6 0.1 -5.7 44 4.2 SW 15 22 8 12 1023.4 1020.5 0.0
28/09:30pm 6.5 2.4 -6.4 39 4.8 SSW 7 13 4 7 1023.6 1020.6 0.0
28/09:00pm 7.0 3.0 -7.4 35 5.2 S 6 7 3 4 1023.6 1020.6 0.0
28/08:30pm 6.7 1.4 -7.7 35 5.2 SSW 13 15 7 8 1023.6 1020.6 0.0
28/08:00pm 6.0 0.1 -5.3 44 4.3 SSW 17 19 9 10 1023.4 1020.5 0.0
28/07:30pm 4.9 1.1 -0.9 66 2.4 W 9 11 5 6 1023.7 1020.8 0.0
28/07:00pm 5.7 0.5 -3.1 53 3.5 SW 15 17 8 9 1023.7 1020.8 0.0
28/06:30pm 5.1 -0.1 -2.7 57 3.1 WSW 15 19 8 10 1023.4 1020.5 0.0
28/06:00pm 3.3 1.5 3.2 99 0.0 NNW 2 6 1 3 1023.2 1020.3 0.0
28/05:30pm 3.8 1.2 3.4 97 0.2 W 6 7 3 4 1023.2 1020.3 0.0
28/05:00pm 4.7 2.3 4.1 96 0.3 NNW 6 11 3 6 1023.2 1020.3 0.0
28/04:30pm 6.7 3.9 3.1 78 1.7 W 7 13 4 7 1023.2 1020.3 0.0
28/04:00pm 7.6 5.5 5.7 88 0.9 N 6 9 3 5 1023.3 1020.4 0.0
28/03:30pm 8.4 6.1 5.5 82 1.5 N 7 9 4 5 1023.3 1020.4 0.0
28/03:00pm 10.3 7.5 1.9 56 3.9 WNW 6 15 3 8 1023.2 1020.3 0.0
28/02:30pm 9.2 6.9 5.8 79 1.7 N 7 11 4 6 1023.2 1020.3 0.0
28/02:00pm 9.9 7.6 5.7 75 2.1 N 7 11 4 6 1023.1 1020.1 0.0
28/01:30pm 9.4 6.9 5.0 74 2.2 N 7 11 4 6 1023.2 1020.3 0.0
28/01:00pm 10.8 7.8 4.0 63 3.3 SW 9 20 5 11 1023.3 1020.4 0.0
28/12:30pm 11.3 6.0 -3.6 35 6.2 SSW 15 20 8 11 1023.6 1020.6 0.0
28/12:00pm 10.8 5.3 -5.6 31 6.5 SSW 15 22 8 12 1023.7 1020.8 0.0
28/11:30am 10.5 4.9 -5.9 31 6.5 SSW 15 20 8 11 1023.8 1020.9 0.0
28/11:00am 9.6 3.2 -6.7 31 6.2 SSW 19 24 10 13 1024.0 1021.1 0.0
28/10:30am 8.4 4.2 -1.1 51 4.1 SSW 11 17 6 9 1023.9 1021.0 0.0
28/10:00am 6.5 3.3 0.6 66 2.6 SSW 7 15 4 8 1023.8 1020.9 0.0
28/09:30am 5.0 0.0 -1.2 64 2.6 SSW 15 20 8 11 1023.6 1020.6 0.0
28/09:00am 3.7 -2.2 -0.5 74 1.7 SSW 20 24 11 13 1023.3 1020.4 0.0
28/08:30am 2.3 -3.4 0.4 87 0.8 S 20 24 11 13 1023.0 1020.0 0.0
28/08:00am 1.3 -4.8 0.4 94 0.4 S 22 28 12 15 1022.6 1019.7 0.0
28/07:30am 1.1 -3.4 -0.2 91 0.5 SSW 13 19 7 10 1022.4 1019.4 0.0
28/07:00am 0.1 -3.1 -0.2 98 0.1 ESE 6 9 3 5 1022.1 1019.2 0.0
28/06:30am 0.1 -3.1 -0.2 98 0.1 SSE 6 9 3 5 1021.7 1018.7 0.0
28/06:00am -0.2 -5.1 -0.5 98 0.1 S 15 22 8 12 1021.1 1018.0 0.0
28/05:30am -0.6 -4.4 -0.7 99 0.0 SSE 9 13 5 7 1021.1 1018.0 0.0
28/05:00am -0.5 -3.7 -0.6 99 0.0 SSE 6 9 3 5 1020.7 1017.7 0.0
28/04:30am -0.5 -4.7 -0.6 99 0.0 S 11 20 6 11 1020.3 1017.3 0.0
28/04:00am -0.7 -5.3 -0.8 99 0.0 S 13 20 7 11 1020.1 1017.1 0.0
28/03:30am -0.8 -6.1 -0.9 99 0.0 S 17 24 9 13 1020.2 1017.2 0.0
28/03:00am -0.9 -7.6 -1.0 99 0.0 SSW 24 32 13 17 1019.9 1016.8 0.0
28/02:30am -1.0 -8.5 -1.1 99 0.0 S 28 35 15 19 1019.9 1016.8 0.0
28/02:00am -1.1 -8.6 -1.2 99 0.0 S 28 35 15 19 1020.1 1017.1 0.0
28/01:30am -1.1 -9.9 -1.2 99 0.0 S 35 46 19 25 1019.9 1016.8 0.0
28/01:00am -1.3 -8.8 -1.4 99 0.0 S 28 39 15 21 1019.9 1016.8 0.0
28/12:59am -1.3 -8.8 -1.4 99 0.0 S 28 39 15 21 1019.9 1016.8 0.0
28/12:30am -1.6 -5.1 -1.7 99 0.0 SSE 7 17 4 9 1020.3 1017.3 0.0
28/12:00am -1.7 -7.2 -1.8 99 0.0 S 17 22 9 12 1020.1 1017.1 0.0
 
Date/Time
EST
Temp
°C
App
Temp
°C
Dew
Point
°C
Rel
Hum
%
Delta-T
°C
Wind Press
QNH
hPa
Press
MSL
hPa
Rain since
9am
mm
Dir  Spd
km/h
Gust
km/h
Spd
kts
Gust
kts
27/11:30pm -1.6 -9.5 -1.7 99 0.0 S 30 39 16 21 1020.0 1016.9 0.0
27/11:00pm -1.5 -9.4 -1.6 99 0.0 S 30 41 16 22 1019.9 1016.8 0.0
27/10:30pm -1.7 -10.6 -1.8 99 0.0 S 35 44 19 24 1019.5 1016.4 0.0
27/10:00pm -1.6 -9.9 -1.7 99 0.0 S 32 43 17 23 1019.6 1016.6 0.0
27/09:42pm -1.7 -9.3 -1.8 99 0.0 S 28 48 15 26 1019.8 1016.7 0.0
27/09:30pm -1.8 -8.6 -1.9 99 -0.1 SSW 24 39 13 21 1020.1 1017.1 0.0
27/09:00pm -1.7 -7.2 -2.0 98 0.0 S 17 28 9 15 1020.3 1017.3 0.0
27/08:30pm -1.7 -6.4 -2.0 98 0.0 S 13 19 7 10 1020.1 1017.1 0.0
27/08:00pm -1.6 -6.3 -1.9 98 0.0 S 13 32 7 17 1020.1 1017.1 0.0
27/07:30pm -1.6 -7.1 -1.9 98 0.0 S 17 32 9 17 1019.8 1016.7 0.0
27/07:00pm -1.7 -7.2 -2.0 98 0.0 S 17 32 9 17 1019.4 1016.3 0.0
27/06:30pm -1.8 -7.7 -2.1 98 0.0 S 19 35 10 19 1019.3 1016.2 0.0
27/06:00pm -1.6 -5.9 -2.0 97 0.1 SSE 11 19 6 10 1018.7 1015.6 0.0
27/05:30pm -1.6 -5.6 -2.2 96 0.1 S 9 19 5 10 1018.8 1015.7 0.0
27/05:00pm -1.1 -7.0 -2.1 93 0.3 S 19 35 10 19 1018.7 1015.6 0.0
27/04:30pm -0.9 -6.9 -1.9 93 0.3 S 20 33 11 18 1018.9 1015.8 0.0
27/04:00pm -0.5 -6.9 -1.8 91 0.5 S 22 33 12 18 1018.8 1015.7 0.0
27/03:30pm -0.6 -10.3 -2.0 90 0.5 S 39 52 21 28 1018.2 1015.1 0.0
27/03:00pm -0.2 -7.3 -1.0 94 0.3 S 26 41 14 22 1018.6 1015.5 0.0
27/02:30pm -0.6 -6.5 -1.0 97 0.1 S 20 33 11 18 1018.1 1015.0 0.0
27/02:00pm -1.2 -8.0 -1.5 98 0.1 S 24 37 13 20 1018.0 1014.8 0.0
27/01:30pm -1.4 -8.6 -1.7 98 0.0 S 26 37 14 20 1017.7 1014.6 0.0

Other Formats:

Comma delimited format used in spreadsheet applications
http://www.bom.gov.au/fwo/IDV60801/IDV60801.94903.axf

JavaScript Object Notation format (JSON) in row-major order
http://www.bom.gov.au/fwo/IDV60801/IDV60801.94903.json